Ana Sayfa
METAR-TAF:

METAR-TAF

Havaalanları :

Paulatuk, Kuzeybatı Bölgeleri, Kanada

Enlem: 69-21N, Boylam: 124-02W, yükseklik: 6 m

Güncel hava durumu gözlemi

Rapor saat 00:00 UTC de 3 saat ve 44 dakika önce yapıldı.
Sakin rüzgar
Sıcaklık -26°C
Nem 69%
Basınç 1032 hPa
Görüş mesafesi: 24.1 km
Açık gökyüzü

METAR: CYPC 110000Z 00000KT 15SM SKC M26/M30 A3048 RMK LAST STFD OBS/NEXT 111400Z SLP324

Saat: 20:44 (03:44 UTC)

Tahmin

Rapor saat 18:38 UTC de 9 saat ve 6 dakika önce yapıldı.
Ayın 10'si saat 19 UTC'den ayın 10'si saat 24 UTC'ye kadar geçerli Tahmin
Rüzgar değişken yönden 3 kt
Görüş mesafesi: 10 km
Açık gökyüzü

TAF: CYPC 101838Z 1019/1024 VRB03KT P6SM SKC RMK NXT FCST WILL BE ISSUED AT 111545Z

4.000'den fazla havaalanı için hava durumu gözlemleri ve tahminleri (METAR ve TAF raporları).

Kullanılabilir istasyonlar harita üzerinde sarı ve kırmızı noktalarla gösterilir.

İstasyonun adını görmek için fareyi noktanın üzerinde gezdirin.

Sonrasında hava gözlem ve tahminlerini görmek için tıklayın.

Haritayı değiştirmek için: yaklaştırmak için siyah artı işaretli yeşil düğmeye ve uzaklaştırmak için de eksi işaretli düğmeye hızla tıklayın; bitişik haritalar için yeşil okları kullanın.


METAR-TAF: